Terminal Aerodrome Forecast
Issued by NWS

Home | Current Version | Previous Version | Graphics & Text | Print | Product List | Glossary On
Versions: 1 2 3 4 5 6 7 8 9 10 11 12
000
FTUS43 KICT 291100
TAFRSL
TAF
KRSL 291120Z 2912/3012 17008KT P6SM BKN080
     FM291700 17012G18KT P6SM BKN080
     FM300200 13010KT P6SM SCT080 BKN200
     FM300600 16012KT P6SM VCTS SCT060CB BKN100=

USA.gov is the U.S. government's official web portal to all federal, state and local government web resources and services.